sensor_id;sensor_type;location;lat;lon;timestamp;P1;durP1;ratioP1;P2;durP2;ratioP2
12332;SDS011;6232;48.094;11.288;2022-08-18T00:00:46;10.83;;;9.57;;
12332;SDS011;6232;48.094;11.288;2022-08-18T00:03:31;12.00;;;9.90;;
12332;SDS011;6232;48.094;11.288;2022-08-18T00:06:17;11.20;;;9.20;;
12332;SDS011;6232;48.094;11.288;2022-08-18T00:09:05;10.23;;;8.80;;
12332;SDS011;6232;48.094;11.288;2022-08-18T00:11:51;12.23;;;10.07;;
12332;SDS011;6232;48.094;11.288;2022-08-18T00:14:36;11.70;;;8.93;;
12332;SDS011;6232;48.094;11.288;2022-08-18T00:17:22;10.80;;;9.70;;
12332;SDS011;6232;48.094;11.288;2022-08-18T00:20:09;9.30;;;8.40;;
12332;SDS011;6232;48.094;11.288;2022-08-18T00:22:55;10.33;;;9.33;;
12332;SDS011;6232;48.094;11.288;2022-08-18T00:25:42;16.43;;;10.37;;
12332;SDS011;6232;48.094;11.288;2022-08-18T00:28:27;13.33;;;9.03;;
12332;SDS011;6232;48.094;11.288;2022-08-18T00:31:13;9.37;;;8.20;;
12332;SDS011;6232;48.094;11.288;2022-08-18T00:33:58;11.13;;;10.07;;
12332;SDS011;6232;48.094;11.288;2022-08-18T00:36:44;14.73;;;9.90;;
12332;SDS011;6232;48.094;11.288;2022-08-18T00:39:30;11.40;;;9.80;;
12332;SDS011;6232;48.094;11.288;2022-08-18T00:42:23;11.33;;;9.60;;
12332;SDS011;6232;48.094;11.288;2022-08-18T00:45:15;11.43;;;9.27;;
12332;SDS011;6232;48.094;11.288;2022-08-18T00:48:02;10.70;;;9.60;;
12332;SDS011;6232;48.094;11.288;2022-08-18T00:50:49;11.57;;;10.37;;
12332;SDS011;6232;48.094;11.288;2022-08-18T00:53:40;10.53;;;9.20;;
12332;SDS011;6232;48.094;11.288;2022-08-18T00:56:29;12.57;;;9.17;;
12332;SDS011;6232;48.094;11.288;2022-08-18T00:59:23;12.27;;;9.50;;
12332;SDS011;6232;48.094;11.288;2022-08-18T01:02:19;9.63;;;8.63;;
12332;SDS011;6232;48.094;11.288;2022-08-18T01:07:51;10.07;;;9.07;;
12332;SDS011;6232;48.094;11.288;2022-08-18T01:10:36;11.70;;;8.73;;
12332;SDS011;6232;48.094;11.288;2022-08-18T01:13:27;15.07;;;11.37;;
12332;SDS011;6232;48.094;11.288;2022-08-18T01:16:13;11.10;;;9.40;;
12332;SDS011;6232;48.094;11.288;2022-08-18T01:19:18;11.43;;;9.33;;
12332;SDS011;6232;48.094;11.288;2022-08-18T01:22:46;10.00;;;8.90;;
12332;SDS011;6232;48.094;11.288;2022-08-18T01:25:32;13.73;;;9.03;;
12332;SDS011;6232;48.094;11.288;2022-08-18T01:28:37;9.80;;;8.33;;
12332;SDS011;6232;48.094;11.288;2022-08-18T01:31:32;11.10;;;10.00;;
12332;SDS011;6232;48.094;11.288;2022-08-18T01:34:23;12.10;;;8.83;;
12332;SDS011;6232;48.094;11.288;2022-08-18T01:37:09;11.83;;;8.73;;
12332;SDS011;6232;48.094;11.288;2022-08-18T01:39:54;9.20;;;8.27;;
12332;SDS011;6232;48.094;11.288;2022-08-18T01:42:40;9.70;;;8.70;;
12332;SDS011;6232;48.094;11.288;2022-08-18T01:45:30;8.93;;;8.03;;
12332;SDS011;6232;48.094;11.288;2022-08-18T01:48:18;13.63;;;8.27;;
12332;SDS011;6232;48.094;11.288;2022-08-18T01:51:06;8.37;;;7.53;;
12332;SDS011;6232;48.094;11.288;2022-08-18T01:53:52;8.83;;;7.80;;
12332;SDS011;6232;48.094;11.288;2022-08-18T01:56:38;10.07;;;8.17;;
12332;SDS011;6232;48.094;11.288;2022-08-18T01:59:25;11.23;;;7.90;;
12332;SDS011;6232;48.094;11.288;2022-08-18T02:02:11;9.50;;;8.27;;
12332;SDS011;6232;48.094;11.288;2022-08-18T02:05:00;9.40;;;7.60;;
12332;SDS011;6232;48.094;11.288;2022-08-18T02:07:47;8.43;;;7.63;;
12332;SDS011;6232;48.094;11.288;2022-08-18T02:10:32;7.80;;;6.57;;
12332;SDS011;6232;48.094;11.288;2022-08-18T02:13:18;9.60;;;7.30;;
12332;SDS011;6232;48.094;11.288;2022-08-18T02:16:04;8.70;;;7.30;;
12332;SDS011;6232;48.094;11.288;2022-08-18T02:18:50;11.70;;;8.20;;
12332;SDS011;6232;48.094;11.288;2022-08-18T02:21:35;8.93;;;7.87;;
12332;SDS011;6232;48.094;11.288;2022-08-18T02:24:21;9.00;;;7.77;;
12332;SDS011;6232;48.094;11.288;2022-08-18T02:27:07;9.10;;;8.10;;
12332;SDS011;6232;48.094;11.288;2022-08-18T02:29:53;8.00;;;7.00;;
12332;SDS011;6232;48.094;11.288;2022-08-18T02:32:39;9.37;;;8.47;;
12332;SDS011;6232;48.094;11.288;2022-08-18T02:35:25;8.93;;;7.93;;
12332;SDS011;6232;48.094;11.288;2022-08-18T02:38:10;8.13;;;7.33;;
12332;SDS011;6232;48.094;11.288;2022-08-18T02:40:56;8.47;;;6.83;;
12332;SDS011;6232;48.094;11.288;2022-08-18T02:43:42;9.50;;;8.10;;
12332;SDS011;6232;48.094;11.288;2022-08-18T02:46:28;7.20;;;6.47;;
12332;SDS011;6232;48.094;11.288;2022-08-18T02:49:14;8.70;;;7.57;;
12332;SDS011;6232;48.094;11.288;2022-08-18T02:51:59;11.50;;;8.67;;
12332;SDS011;6232;48.094;11.288;2022-08-18T02:54:45;9.00;;;7.87;;
12332;SDS011;6232;48.094;11.288;2022-08-18T02:57:31;9.77;;;8.80;;
12332;SDS011;6232;48.094;11.288;2022-08-18T03:00:17;8.73;;;7.60;;
12332;SDS011;6232;48.094;11.288;2022-08-18T03:03:03;8.60;;;7.70;;
12332;SDS011;6232;48.094;11.288;2022-08-18T03:05:48;9.13;;;7.33;;
12332;SDS011;6232;48.094;11.288;2022-08-18T03:08:34;10.13;;;7.97;;
12332;SDS011;6232;48.094;11.288;2022-08-18T03:11:28;14.40;;;8.77;;
12332;SDS011;6232;48.094;11.288;2022-08-18T03:14:14;7.70;;;6.87;;
12332;SDS011;6232;48.094;11.288;2022-08-18T03:17:02;8.20;;;7.40;;
12332;SDS011;6232;48.094;11.288;2022-08-18T03:19:49;12.83;;;9.10;;
12332;SDS011;6232;48.094;11.288;2022-08-18T03:22:35;9.63;;;7.77;;
12332;SDS011;6232;48.094;11.288;2022-08-18T03:25:21;9.60;;;8.00;;
12332;SDS011;6232;48.094;11.288;2022-08-18T03:28:06;11.13;;;8.10;;
12332;SDS011;6232;48.094;11.288;2022-08-18T03:30:52;10.40;;;7.97;;
12332;SDS011;6232;48.094;11.288;2022-08-18T03:33:37;12.53;;;7.90;;
12332;SDS011;6232;48.094;11.288;2022-08-18T03:36:25;9.13;;;8.23;;
12332;SDS011;6232;48.094;11.288;2022-08-18T03:39:11;10.13;;;7.83;;
12332;SDS011;6232;48.094;11.288;2022-08-18T03:41:57;10.93;;;7.93;;
12332;SDS011;6232;48.094;11.288;2022-08-18T03:44:43;9.70;;;8.70;;
12332;SDS011;6232;48.094;11.288;2022-08-18T03:47:29;10.93;;;8.17;;
12332;SDS011;6232;48.094;11.288;2022-08-18T03:50:14;10.97;;;9.80;;
12332;SDS011;6232;48.094;11.288;2022-08-18T03:53:00;10.53;;;8.93;;
12332;SDS011;6232;48.094;11.288;2022-08-18T03:55:45;10.27;;;8.10;;
12332;SDS011;6232;48.094;11.288;2022-08-18T03:58:31;13.20;;;8.27;;
12332;SDS011;6232;48.094;11.288;2022-08-18T04:01:18;11.90;;;9.23;;
12332;SDS011;6232;48.094;11.288;2022-08-18T04:04:07;12.20;;;9.37;;
12332;SDS011;6232;48.094;11.288;2022-08-18T04:06:54;18.13;;;10.10;;
12332;SDS011;6232;48.094;11.288;2022-08-18T04:09:42;11.60;;;9.10;;
12332;SDS011;6232;48.094;11.288;2022-08-18T04:12:28;11.60;;;9.07;;
12332;SDS011;6232;48.094;11.288;2022-08-18T04:15:14;12.20;;;8.83;;
12332;SDS011;6232;48.094;11.288;2022-08-18T04:18:00;12.30;;;9.07;;
12332;SDS011;6232;48.094;11.288;2022-08-18T04:20:48;10.80;;;8.87;;
12332;SDS011;6232;48.094;11.288;2022-08-18T04:23:37;10.47;;;8.13;;
12332;SDS011;6232;48.094;11.288;2022-08-18T04:26:22;23.33;;;10.13;;
12332;SDS011;6232;48.094;11.288;2022-08-18T04:29:08;10.80;;;9.10;;
12332;SDS011;6232;48.094;11.288;2022-08-18T04:31:54;12.47;;;10.33;;
12332;SDS011;6232;48.094;11.288;2022-08-18T04:34:40;10.80;;;8.90;;
12332;SDS011;6232;48.094;11.288;2022-08-18T04:37:25;8.93;;;8.03;;
12332;SDS011;6232;48.094;11.288;2022-08-18T04:40:11;10.83;;;8.40;;
12332;SDS011;6232;48.094;11.288;2022-08-18T04:42:58;8.93;;;8.03;;
12332;SDS011;6232;48.094;11.288;2022-08-18T04:45:46;9.87;;;8.87;;
12332;SDS011;6232;48.094;11.288;2022-08-18T04:48:36;9.57;;;8.17;;
12332;SDS011;6232;48.094;11.288;2022-08-18T04:51:21;10.20;;;8.00;;
12332;SDS011;6232;48.094;11.288;2022-08-18T04:54:07;9.33;;;8.30;;
12332;SDS011;6232;48.094;11.288;2022-08-18T04:56:53;8.93;;;8.03;;
12332;SDS011;6232;48.094;11.288;2022-08-18T04:59:39;13.73;;;7.90;;
12332;SDS011;6232;48.094;11.288;2022-08-18T05:02:25;9.70;;;8.70;;
12332;SDS011;6232;48.094;11.288;2022-08-18T05:05:11;11.17;;;8.90;;
12332;SDS011;6232;48.094;11.288;2022-08-18T05:07:56;12.30;;;8.87;;
12332;SDS011;6232;48.094;11.288;2022-08-18T05:10:42;13.33;;;8.60;;
12332;SDS011;6232;48.094;11.288;2022-08-18T05:13:27;10.23;;;8.90;;
12332;SDS011;6232;48.094;11.288;2022-08-18T05:16:13;10.07;;;8.80;;
12332;SDS011;6232;48.094;11.288;2022-08-18T05:18:59;13.43;;;9.47;;
12332;SDS011;6232;48.094;11.288;2022-08-18T05:21:48;12.50;;;9.70;;
12332;SDS011;6232;48.094;11.288;2022-08-18T05:24:34;7.60;;;6.90;;
12332;SDS011;6232;48.094;11.288;2022-08-18T05:27:20;12.63;;;9.57;;
12332;SDS011;6232;48.094;11.288;2022-08-18T05:30:06;12.97;;;9.70;;
12332;SDS011;6232;48.094;11.288;2022-08-18T05:32:52;16.23;;;8.00;;
12332;SDS011;6232;48.094;11.288;2022-08-18T05:35:43;14.57;;;9.97;;
12332;SDS011;6232;48.094;11.288;2022-08-18T05:38:34;9.33;;;7.63;;
12332;SDS011;6232;48.094;11.288;2022-08-18T05:41:24;8.47;;;6.97;;
12332;SDS011;6232;48.094;11.288;2022-08-18T05:44:12;10.20;;;8.10;;
12332;SDS011;6232;48.094;11.288;2022-08-18T05:47:02;9.23;;;8.30;;
12332;SDS011;6232;48.094;11.288;2022-08-18T05:49:49;9.30;;;8.03;;
12332;SDS011;6232;48.094;11.288;2022-08-18T05:55:26;11.40;;;7.47;;
12332;SDS011;6232;48.094;11.288;2022-08-18T05:58:38;10.57;;;9.17;;
12332;SDS011;6232;48.094;11.288;2022-08-18T06:01:28;14.37;;;8.23;;
12332;SDS011;6232;48.094;11.288;2022-08-18T06:07:29;9.93;;;7.57;;
12332;SDS011;6232;48.094;11.288;2022-08-18T06:10:15;8.77;;;7.87;;
12332;SDS011;6232;48.094;11.288;2022-08-18T06:13:01;9.60;;;7.83;;
12332;SDS011;6232;48.094;11.288;2022-08-18T06:18:58;8.47;;;7.43;;
12332;SDS011;6232;48.094;11.288;2022-08-18T06:24:40;9.03;;;7.50;;
12332;SDS011;6232;48.094;11.288;2022-08-18T06:27:46;7.73;;;7.00;;
12332;SDS011;6232;48.094;11.288;2022-08-18T06:33:37;10.27;;;9.13;;
12332;SDS011;6232;48.094;11.288;2022-08-18T06:36:29;9.20;;;7.80;;
12332;SDS011;6232;48.094;11.288;2022-08-18T06:39:38;10.00;;;8.50;;
12332;SDS011;6232;48.094;11.288;2022-08-18T06:42:27;10.57;;;7.70;;
12332;SDS011;6232;48.094;11.288;2022-08-18T06:45:15;10.07;;;7.90;;
12332;SDS011;6232;48.094;11.288;2022-08-18T06:48:15;11.40;;;8.47;;
12332;SDS011;6232;48.094;11.288;2022-08-18T06:51:02;10.80;;;8.73;;
12332;SDS011;6232;48.094;11.288;2022-08-18T06:56:43;9.20;;;8.20;;
12332;SDS011;6232;48.094;11.288;2022-08-18T06:59:30;10.90;;;9.80;;
12332;SDS011;6232;48.094;11.288;2022-08-18T07:02:24;10.13;;;9.13;;
12332;SDS011;6232;48.094;11.288;2022-08-18T07:10:49;9.30;;;7.80;;
12332;SDS011;6232;48.094;11.288;2022-08-18T07:13:37;7.73;;;7.00;;
12332;SDS011;6232;48.094;11.288;2022-08-18T07:19:12;8.17;;;7.37;;
12332;SDS011;6232;48.094;11.288;2022-08-18T07:22:05;8.50;;;7.23;;
12332;SDS011;6232;48.094;11.288;2022-08-18T07:24:52;6.83;;;5.83;;
12332;SDS011;6232;48.094;11.288;2022-08-18T07:27:44;6.83;;;6.13;;
12332;SDS011;6232;48.094;11.288;2022-08-18T07:30:32;6.03;;;5.33;;
12332;SDS011;6232;48.094;11.288;2022-08-18T07:33:21;7.17;;;6.53;;
12332;SDS011;6232;48.094;11.288;2022-08-18T07:36:08;8.97;;;6.30;;
12332;SDS011;6232;48.094;11.288;2022-08-18T07:38:57;6.43;;;5.50;;
12332;SDS011;6232;48.094;11.288;2022-08-18T07:41:51;6.93;;;6.33;;
12332;SDS011;6232;48.094;11.288;2022-08-18T07:44:56;8.50;;;6.13;;
12332;SDS011;6232;48.094;11.288;2022-08-18T07:47:52;6.53;;;5.93;;
12332;SDS011;6232;48.094;11.288;2022-08-18T07:50:49;7.47;;;6.77;;
12332;SDS011;6232;48.094;11.288;2022-08-18T07:56:47;5.83;;;5.33;;
12332;SDS011;6232;48.094;11.288;2022-08-18T08:05:41;7.07;;;6.37;;
12332;SDS011;6232;48.094;11.288;2022-08-18T08:08:41;7.57;;;5.70;;
12332;SDS011;6232;48.094;11.288;2022-08-18T08:14:41;7.50;;;5.93;;
12332;SDS011;6232;48.094;11.288;2022-08-18T08:20:44;8.53;;;6.80;;
12332;SDS011;6232;48.094;11.288;2022-08-18T08:29:35;6.33;;;5.73;;
12332;SDS011;6232;48.094;11.288;2022-08-18T08:32:27;8.30;;;6.30;;
12332;SDS011;6232;48.094;11.288;2022-08-18T08:35:18;6.63;;;5.83;;
12332;SDS011;6232;48.094;11.288;2022-08-18T08:38:17;7.47;;;6.30;;
12332;SDS011;6232;48.094;11.288;2022-08-18T08:41:05;7.83;;;7.03;;
12332;SDS011;6232;48.094;11.288;2022-08-18T08:43:55;9.03;;;6.40;;
12332;SDS011;6232;48.094;11.288;2022-08-18T08:49:37;6.23;;;5.73;;
12332;SDS011;6232;48.094;11.288;2022-08-18T08:52:26;7.57;;;6.90;;
12332;SDS011;6232;48.094;11.288;2022-08-18T08:55:16;6.77;;;6.07;;
12332;SDS011;6232;48.094;11.288;2022-08-18T09:00:47;7.50;;;5.63;;
12332;SDS011;6232;48.094;11.288;2022-08-18T09:06:44;7.10;;;6.40;;
12332;SDS011;6232;48.094;11.288;2022-08-18T09:09:38;8.80;;;7.10;;
12332;SDS011;6232;48.094;11.288;2022-08-18T09:12:53;10.20;;;9.03;;
12332;SDS011;6232;48.094;11.288;2022-08-18T09:24:46;7.40;;;5.80;;
12332;SDS011;6232;48.094;11.288;2022-08-18T09:30:36;7.67;;;6.03;;
12332;SDS011;6232;48.094;11.288;2022-08-18T09:33:57;5.97;;;5.47;;
12332;SDS011;6232;48.094;11.288;2022-08-18T09:39:22;6.83;;;5.43;;
12332;SDS011;6232;48.094;11.288;2022-08-18T09:42:39;7.53;;;5.97;;
12332;SDS011;6232;48.094;11.288;2022-08-18T09:48:27;6.40;;;5.73;;
12332;SDS011;6232;48.094;11.288;2022-08-18T09:54:10;6.27;;;5.67;;
12332;SDS011;6232;48.094;11.288;2022-08-18T10:22:59;8.10;;;4.90;;
12332;SDS011;6232;48.094;11.288;2022-08-18T10:25:45;8.10;;;4.90;;
12332;SDS011;6232;48.094;11.288;2022-08-18T10:34:48;6.33;;;4.60;;
12332;SDS011;6232;48.094;11.288;2022-08-18T10:40:21;6.00;;;5.13;;
12332;SDS011;6232;48.094;11.288;2022-08-18T10:43:08;5.07;;;4.67;;
12332;SDS011;6232;48.094;11.288;2022-08-18T10:45:54;6.67;;;5.93;;
12332;SDS011;6232;48.094;11.288;2022-08-18T10:48:41;6.10;;;5.40;;
12332;SDS011;6232;48.094;11.288;2022-08-18T10:51:34;8.93;;;5.23;;
12332;SDS011;6232;48.094;11.288;2022-08-18T10:57:15;6.67;;;5.97;;
12332;SDS011;6232;48.094;11.288;2022-08-18T11:00:13;11.50;;;6.50;;
12332;SDS011;6232;48.094;11.288;2022-08-18T11:03:16;7.20;;;5.57;;
12332;SDS011;6232;48.094;11.288;2022-08-18T11:06:06;6.20;;;5.40;;
12332;SDS011;6232;48.094;11.288;2022-08-18T11:08:57;6.10;;;4.93;;
12332;SDS011;6232;48.094;11.288;2022-08-18T11:11:43;7.33;;;5.03;;
12332;SDS011;6232;48.094;11.288;2022-08-18T11:14:37;6.63;;;6.03;;
12332;SDS011;6232;48.094;11.288;2022-08-18T11:17:34;5.57;;;4.57;;
12332;SDS011;6232;48.094;11.288;2022-08-18T11:20:25;6.00;;;5.40;;
12332;SDS011;6232;48.094;11.288;2022-08-18T11:23:14;6.77;;;6.07;;
12332;SDS011;6232;48.094;11.288;2022-08-18T11:26:12;7.17;;;6.40;;
12332;SDS011;6232;48.094;11.288;2022-08-18T11:28:57;9.70;;;5.87;;
12332;SDS011;6232;48.094;11.288;2022-08-18T11:31:43;5.23;;;4.63;;
12332;SDS011;6232;48.094;11.288;2022-08-18T11:34:40;7.13;;;5.63;;
12332;SDS011;6232;48.094;11.288;2022-08-18T11:43:23;6.17;;;5.57;;
12332;SDS011;6232;48.094;11.288;2022-08-18T11:46:15;5.93;;;5.00;;
12332;SDS011;6232;48.094;11.288;2022-08-18T11:49:15;5.70;;;4.20;;
12332;SDS011;6232;48.094;11.288;2022-08-18T11:52:02;5.63;;;5.13;;
12332;SDS011;6232;48.094;11.288;2022-08-18T11:54:50;4.23;;;3.90;;
12332;SDS011;6232;48.094;11.288;2022-08-18T12:03:30;7.15;;;4.85;;
12332;SDS011;6232;48.094;11.288;2022-08-18T12:06:21;4.63;;;4.20;;
12332;SDS011;6232;48.094;11.288;2022-08-18T12:09:17;4.75;;;4.20;;
12332;SDS011;6232;48.094;11.288;2022-08-18T12:18:01;5.15;;;4.50;;
12332;SDS011;6232;48.094;11.288;2022-08-18T12:20:47;5.57;;;4.55;;
12332;SDS011;6232;48.094;11.288;2022-08-18T12:23:33;4.35;;;3.95;;
12332;SDS011;6232;48.094;11.288;2022-08-18T12:26:20;6.07;;;4.65;;
12332;SDS011;6232;48.094;11.288;2022-08-18T12:29:05;5.18;;;4.78;;
12332;SDS011;6232;48.094;11.288;2022-08-18T12:31:52;4.40;;;4.00;;
12332;SDS011;6232;48.094;11.288;2022-08-18T12:34:37;6.13;;;4.80;;
12332;SDS011;6232;48.094;11.288;2022-08-18T12:37:24;6.07;;;5.47;;
12332;SDS011;6232;48.094;11.288;2022-08-18T12:40:10;5.57;;;5.07;;
12332;SDS011;6232;48.094;11.288;2022-08-18T12:42:56;6.47;;;5.87;;
12332;SDS011;6232;48.094;11.288;2022-08-18T12:45:41;6.10;;;5.33;;
12332;SDS011;6232;48.094;11.288;2022-08-18T12:48:27;6.17;;;5.53;;
12332;SDS011;6232;48.094;11.288;2022-08-18T12:51:14;5.60;;;5.10;;
12332;SDS011;6232;48.094;11.288;2022-08-18T12:54:00;7.37;;;6.07;;
12332;SDS011;6232;48.094;11.288;2022-08-18T12:56:47;5.50;;;5.00;;
12332;SDS011;6232;48.094;11.288;2022-08-18T12:59:33;5.30;;;4.80;;
12332;SDS011;6232;48.094;11.288;2022-08-18T13:02:20;6.00;;;5.00;;
12332;SDS011;6232;48.094;11.288;2022-08-18T13:05:06;5.47;;;5.07;;
12332;SDS011;6232;48.094;11.288;2022-08-18T13:07:51;7.63;;;6.93;;
12332;SDS011;6232;48.094;11.288;2022-08-18T13:10:37;7.33;;;6.23;;
12332;SDS011;6232;48.094;11.288;2022-08-18T13:13:22;6.10;;;5.60;;
12332;SDS011;6232;48.094;11.288;2022-08-18T13:16:08;5.70;;;4.97;;
12332;SDS011;6232;48.094;11.288;2022-08-18T13:18:54;8.20;;;6.50;;
12332;SDS011;6232;48.094;11.288;2022-08-18T13:21:40;7.27;;;6.53;;
12332;SDS011;6232;48.094;11.288;2022-08-18T13:24:26;7.57;;;5.73;;
12332;SDS011;6232;48.094;11.288;2022-08-18T13:27:11;6.60;;;6.00;;
12332;SDS011;6232;48.094;11.288;2022-08-18T13:29:57;10.60;;;5.97;;
12332;SDS011;6232;48.094;11.288;2022-08-18T13:32:42;10.30;;;8.77;;
12332;SDS011;6232;48.094;11.288;2022-08-18T13:35:28;6.10;;;5.53;;
12332;SDS011;6232;48.094;11.288;2022-08-18T13:38:14;6.90;;;6.20;;
12332;SDS011;6232;48.094;11.288;2022-08-18T13:41:03;6.37;;;5.77;;
12332;SDS011;6232;48.094;11.288;2022-08-18T13:43:52;7.07;;;6.37;;
12332;SDS011;6232;48.094;11.288;2022-08-18T13:46:38;7.80;;;5.90;;
12332;SDS011;6232;48.094;11.288;2022-08-18T13:49:30;11.97;;;5.80;;
12332;SDS011;6232;48.094;11.288;2022-08-18T13:52:15;6.37;;;5.77;;
12332;SDS011;6232;48.094;11.288;2022-08-18T13:55:01;6.83;;;6.13;;
12332;SDS011;6232;48.094;11.288;2022-08-18T13:57:48;7.53;;;6.87;;
12332;SDS011;6232;48.094;11.288;2022-08-18T14:00:34;6.80;;;6.07;;
12332;SDS011;6232;48.094;11.288;2022-08-18T14:03:19;7.60;;;6.07;;
12332;SDS011;6232;48.094;11.288;2022-08-18T14:06:07;6.63;;;5.40;;
12332;SDS011;6232;48.094;11.288;2022-08-18T14:08:53;7.33;;;6.73;;
12332;SDS011;6232;48.094;11.288;2022-08-18T14:11:39;9.83;;;7.37;;
12332;SDS011;6232;48.094;11.288;2022-08-18T14:14:24;9.73;;;6.93;;
12332;SDS011;6232;48.094;11.288;2022-08-18T14:17:10;9.93;;;6.77;;
12332;SDS011;6232;48.094;11.288;2022-08-18T14:19:55;6.63;;;6.03;;
12332;SDS011;6232;48.094;11.288;2022-08-18T14:23:00;8.50;;;5.97;;
12332;SDS011;6232;48.094;11.288;2022-08-18T14:26:04;8.10;;;6.30;;
12332;SDS011;6232;48.094;11.288;2022-08-18T14:29:09;7.20;;;6.50;;
12332;SDS011;6232;48.094;11.288;2022-08-18T14:31:57;10.83;;;7.27;;
12332;SDS011;6232;48.094;11.288;2022-08-18T14:34:43;7.77;;;6.67;;
12332;SDS011;6232;48.094;11.288;2022-08-18T14:37:29;7.83;;;6.00;;
12332;SDS011;6232;48.094;11.288;2022-08-18T14:40:15;6.43;;;5.93;;
12332;SDS011;6232;48.094;11.288;2022-08-18T14:43:02;7.20;;;6.57;;
12332;SDS011;6232;48.094;11.288;2022-08-18T14:45:47;10.23;;;6.40;;
12332;SDS011;6232;48.094;11.288;2022-08-18T14:48:33;6.60;;;6.10;;
12332;SDS011;6232;48.094;11.288;2022-08-18T14:51:21;8.00;;;6.40;;
12332;SDS011;6232;48.094;11.288;2022-08-18T14:54:09;7.07;;;6.43;;
12332;SDS011;6232;48.094;11.288;2022-08-18T14:56:56;8.27;;;6.30;;
12332;SDS011;6232;48.094;11.288;2022-08-18T14:59:41;7.17;;;6.47;;
12332;SDS011;6232;48.094;11.288;2022-08-18T15:02:28;8.37;;;6.80;;
12332;SDS011;6232;48.094;11.288;2022-08-18T15:05:14;7.50;;;6.70;;
12332;SDS011;6232;48.094;11.288;2022-08-18T15:08:01;7.10;;;6.50;;
12332;SDS011;6232;48.094;11.288;2022-08-18T15:10:49;7.83;;;6.23;;
12332;SDS011;6232;48.094;11.288;2022-08-18T15:13:37;12.60;;;7.20;;
12332;SDS011;6232;48.094;11.288;2022-08-18T15:16:23;7.30;;;6.30;;
12332;SDS011;6232;48.094;11.288;2022-08-18T15:19:09;6.93;;;6.23;;
12332;SDS011;6232;48.094;11.288;2022-08-18T15:21:55;13.43;;;7.47;;
12332;SDS011;6232;48.094;11.288;2022-08-18T15:24:59;7.77;;;7.07;;
12332;SDS011;6232;48.094;11.288;2022-08-18T15:28:03;7.13;;;5.60;;
12332;SDS011;6232;48.094;11.288;2022-08-18T15:30:49;8.20;;;7.40;;
12332;SDS011;6232;48.094;11.288;2022-08-18T15:33:35;9.57;;;8.17;;
12332;SDS011;6232;48.094;11.288;2022-08-18T15:36:21;9.37;;;7.80;;
12332;SDS011;6232;48.094;11.288;2022-08-18T15:39:08;14.57;;;8.30;;
12332;SDS011;6232;48.094;11.288;2022-08-18T15:41:54;9.80;;;8.83;;
12332;SDS011;6232;48.094;11.288;2022-08-18T15:44:40;11.20;;;8.90;;
12332;SDS011;6232;48.094;11.288;2022-08-18T15:47:25;9.60;;;8.70;;
12332;SDS011;6232;48.094;11.288;2022-08-18T15:50:11;10.03;;;9.13;;
12332;SDS011;6232;48.094;11.288;2022-08-18T15:53:00;11.43;;;9.83;;
12332;SDS011;6232;48.094;11.288;2022-08-18T15:55:48;11.90;;;8.97;;
12332;SDS011;6232;48.094;11.288;2022-08-18T15:58:33;10.53;;;9.43;;
12332;SDS011;6232;48.094;11.288;2022-08-18T16:01:20;10.33;;;9.10;;
12332;SDS011;6232;48.094;11.288;2022-08-18T16:04:06;11.30;;;9.23;;
12332;SDS011;6232;48.094;11.288;2022-08-18T16:06:52;11.80;;;8.70;;
12332;SDS011;6232;48.094;11.288;2022-08-18T16:09:40;11.40;;;9.60;;
12332;SDS011;6232;48.094;11.288;2022-08-18T16:12:25;10.87;;;9.87;;
12332;SDS011;6232;48.094;11.288;2022-08-18T16:15:11;15.43;;;8.60;;
12332;SDS011;6232;48.094;11.288;2022-08-18T16:17:57;11.53;;;10.17;;
12332;SDS011;6232;48.094;11.288;2022-08-18T16:20:43;11.80;;;9.23;;
12332;SDS011;6232;48.094;11.288;2022-08-18T16:23:28;10.77;;;9.67;;
12332;SDS011;6232;48.094;11.288;2022-08-18T16:26:14;10.33;;;9.43;;
12332;SDS011;6232;48.094;11.288;2022-08-18T16:29:00;11.93;;;10.70;;
12332;SDS011;6232;48.094;11.288;2022-08-18T16:31:46;13.50;;;11.53;;
12332;SDS011;6232;48.094;11.288;2022-08-18T16:34:31;13.30;;;11.60;;
12332;SDS011;6232;48.094;11.288;2022-08-18T16:37:17;14.90;;;12.10;;
12332;SDS011;6232;48.094;11.288;2022-08-18T16:40:03;13.03;;;11.33;;
12332;SDS011;6232;48.094;11.288;2022-08-18T16:42:52;13.20;;;11.90;;
12332;SDS011;6232;48.094;11.288;2022-08-18T16:45:38;14.13;;;12.67;;
12332;SDS011;6232;48.094;11.288;2022-08-18T16:48:27;14.50;;;13.10;;
12332;SDS011;6232;48.094;11.288;2022-08-18T16:51:16;16.20;;;14.50;;
12332;SDS011;6232;48.094;11.288;2022-08-18T16:54:04;14.63;;;13.23;;
12332;SDS011;6232;48.094;11.288;2022-08-18T16:56:49;14.40;;;13.00;;
12332;SDS011;6232;48.094;11.288;2022-08-18T16:59:35;15.07;;;13.37;;
12332;SDS011;6232;48.094;11.288;2022-08-18T17:02:40;13.40;;;9.80;;
12332;SDS011;6232;48.094;11.288;2022-08-18T17:05:44;12.23;;;5.93;;
12332;SDS011;6232;48.094;11.288;2022-08-18T17:08:29;12.13;;;5.93;;
12332;SDS011;6232;48.094;11.288;2022-08-18T17:11:18;4.53;;;3.63;;
12332;SDS011;6232;48.094;11.288;2022-08-18T17:14:05;3.93;;;2.20;;
12332;SDS011;6232;48.094;11.288;2022-08-18T17:16:52;2.30;;;2.10;;
12332;SDS011;6232;48.094;11.288;2022-08-18T17:19:40;7.63;;;3.50;;
12332;SDS011;6232;48.094;11.288;2022-08-18T17:22:25;3.87;;;2.60;;
12332;SDS011;6232;48.094;11.288;2022-08-18T17:25:11;17.47;;;2.90;;
12332;SDS011;6232;48.094;11.288;2022-08-18T17:28:00;11.40;;;2.23;;
12332;SDS011;6232;48.094;11.288;2022-08-18T17:30:47;26.23;;;8.93;;
12332;SDS011;6232;48.094;11.288;2022-08-18T17:33:35;3.60;;;2.17;;
12332;SDS011;6232;48.094;11.288;2022-08-18T17:37:07;4.07;;;2.00;;
12332;SDS011;6232;48.094;11.288;2022-08-18T17:39:30;8.10;;;2.27;;
12332;SDS011;6232;48.094;11.288;2022-08-18T17:42:17;6.90;;;2.23;;
12332;SDS011;6232;48.094;11.288;2022-08-18T17:45:12;8.43;;;2.33;;
12332;SDS011;6232;48.094;11.288;2022-08-18T17:51:00;6.00;;;2.50;;
12332;SDS011;6232;48.094;11.288;2022-08-18T17:54:14;3.90;;;2.30;;
12332;SDS011;6232;48.094;11.288;2022-08-18T18:00:00;4.03;;;2.40;;
12332;SDS011;6232;48.094;11.288;2022-08-18T18:02:46;5.33;;;2.50;;
12332;SDS011;6232;48.094;11.288;2022-08-18T18:05:36;7.13;;;3.00;;
12332;SDS011;6232;48.094;11.288;2022-08-18T18:08:45;4.50;;;3.13;;
12332;SDS011;6232;48.094;11.288;2022-08-18T18:11:30;7.03;;;3.40;;
12332;SDS011;6232;48.094;11.288;2022-08-18T18:17:35;6.07;;;3.03;;
12332;SDS011;6232;48.094;11.288;2022-08-18T18:23:19;23.53;;;4.10;;
12332;SDS011;6232;48.094;11.288;2022-08-18T18:26:18;2.90;;;2.70;;
12332;SDS011;6232;48.094;11.288;2022-08-18T18:29:09;26.60;;;3.00;;
12332;SDS011;6232;48.094;11.288;2022-08-18T18:32:02;6.03;;;2.63;;
12332;SDS011;6232;48.094;11.288;2022-08-18T18:35:22;5.87;;;3.40;;
12332;SDS011;6232;48.094;11.288;2022-08-18T18:38:02;5.80;;;3.77;;
12332;SDS011;6232;48.094;11.288;2022-08-18T18:41:02;3.80;;;2.57;;
12332;SDS011;6232;48.094;11.288;2022-08-18T18:43:48;3.00;;;2.20;;
12332;SDS011;6232;48.094;11.288;2022-08-18T18:46:37;2.57;;;2.37;;
12332;SDS011;6232;48.094;11.288;2022-08-18T18:49:26;3.97;;;2.67;;
12332;SDS011;6232;48.094;11.288;2022-08-18T18:52:20;3.23;;;2.43;;
12332;SDS011;6232;48.094;11.288;2022-08-18T18:55:13;2.83;;;2.40;;
12332;SDS011;6232;48.094;11.288;2022-08-18T19:00:49;3.80;;;2.20;;
12332;SDS011;6232;48.094;11.288;2022-08-18T19:03:36;2.67;;;1.80;;
12332;SDS011;6232;48.094;11.288;2022-08-18T19:06:31;3.30;;;2.40;;
12332;SDS011;6232;48.094;11.288;2022-08-18T19:09:26;2.50;;;1.73;;
12332;SDS011;6232;48.094;11.288;2022-08-18T19:12:17;1.77;;;1.60;;
12332;SDS011;6232;48.094;11.288;2022-08-18T19:15:05;1.97;;;1.77;;
12332;SDS011;6232;48.094;11.288;2022-08-18T19:18:02;2.03;;;1.70;;
12332;SDS011;6232;48.094;11.288;2022-08-18T19:20:50;3.23;;;2.07;;
12332;SDS011;6232;48.094;11.288;2022-08-18T19:26:23;3.03;;;2.03;;